Mesa, AZ

01:38 AM MST on Σεπτέμβριος 27, 2016 (GMT -0700)
Phoenix-Mesa Gateway Airport | | Change Station

Elev 1381 ft 33.31 °N, 111.66 °W | Updated 23 minutes ago

Clear
Αίθριος
70 ° F
Feels Like 70 ° F
N
4
Ανεμος Μεταβλητός Ανεμος from ΑΝΑ

Σήμερα
High -- | Low -- ° F
--% Chance of Precip.
Yesterday
High -- | Low -- ° F
Precip. -- in
Ατμοσφαιρική Πίεση 30.02 in
Ορατότητα 10.0 Μίλια
Σύννεφα Αίθριος
Σημείο Δρόσου 45 ° F
Υγρασία 40%
Rainfall 0.00 in
Snow Depth Not available.
6:18 AM 6:15 PM
Μηνίσκος, 13% visible
METAR KIWA 270815Z AUTO 11003KT 10SM CLR 21/07 A3002 RMK AO2
Ατμοσφαιρική Πίεση 30.02 in
Ορατότητα 10.0 Μίλια
Σύννεφα Αίθριος
Σημείο Δρόσου 45 ° F
Υγρασία 40%
Rainfall 0.00 in
Snow Depth Not available.
6:18 AM 6:15 PM
Μηνίσκος, 13% visible
METAR KIWA 270815Z AUTO 11003KT 10SM CLR 21/07 A3002 RMK AO2

10-Day Weather Forecast

Almanac

Αστρονομία

Sep. 27, 2016 Rise Set
Actual Time
Civil Twilight
Nautical Twilight
Astronomical Twilight
Moon
Length Of Visible Light
Διάρκεια ημέρας
Tomorrow will be .
, % of the Moon is Illuminated

Today's Extremes

State Highs State Lows

Community

WunderPhotos

Upload Photos

1,942,040 photos uploaded!

WunderBlog® & News

Nearby

Air Quality

  Air Quality AQ Index Pollutant
Not available.

Snow Depth

Station Depth Elevation

Earthquake Activity

City Distance Mag. Time & Date
Minimum magnitude displayed is 2.5.

Coastal Water Temperatures

Τοποθεσία Θερμοκρασία

Stations

Nearby Weather Stations

Station Location Temp Δείκτης Ψυχρότητας Σημείο Δρόσου Υγρασία Ανεμος Precip. Elev Ενημερώθηκε Type
                   

Watches & Warnings

There are currently no watches in effect.